createdAt,value
2023-04-23T00:00:52.359Z,37
2023-04-23T00:01:58.097Z,33
2023-04-23T00:03:06.103Z,36
2023-04-23T00:04:13.076Z,35
2023-04-23T00:05:23.705Z,34
2023-04-23T00:06:30.621Z,31
2023-04-23T00:07:37.472Z,31
2023-04-23T00:08:44.310Z,30
2023-04-23T00:09:51.299Z,28
2023-04-23T00:10:58.086Z,29
2023-04-23T00:12:04.925Z,29
2023-04-23T00:13:12.062Z,28
2023-04-23T00:14:18.891Z,33
2023-04-23T00:15:25.859Z,29
2023-04-23T00:16:34.625Z,28
2023-04-23T00:17:41.535Z,28
2023-04-23T00:18:48.405Z,29
2023-04-23T00:19:56.144Z,26
2023-04-23T00:21:03.000Z,27
2023-04-23T00:22:09.925Z,28
2023-04-23T00:23:19.557Z,28
2023-04-23T00:24:26.473Z,27
2023-04-23T00:25:34.704Z,26
2023-04-23T00:26:41.553Z,26
2023-04-23T00:27:48.440Z,28
2023-04-23T00:28:55.467Z,26
2023-04-23T00:30:02.666Z,26
2023-04-23T00:31:09.753Z,26
2023-04-23T00:32:17.567Z,26
2023-04-23T00:33:24.379Z,26
2023-04-23T00:34:32.033Z,25
2023-04-23T00:35:38.910Z,26
2023-04-23T00:36:45.834Z,27
2023-04-23T00:37:52.682Z,25
2023-04-23T00:38:59.545Z,27
2023-04-23T00:40:07.279Z,26
2023-04-23T00:41:14.204Z,26
2023-04-23T00:42:21.077Z,28
2023-04-23T00:43:28.187Z,26
2023-04-23T00:44:35.060Z,25
2023-04-23T00:45:41.981Z,26
2023-04-23T00:46:48.876Z,26
2023-04-23T00:47:55.690Z,26
2023-04-23T00:49:03.493Z,25
2023-04-23T00:50:10.381Z,28
2023-04-23T00:51:17.188Z,24
2023-04-23T00:52:24.122Z,25
2023-04-23T00:53:31.002Z,27
2023-04-23T00:54:41.002Z,27
2023-04-23T00:55:47.625Z,22
2023-04-23T00:56:54.559Z,24
2023-04-23T00:58:01.440Z,25
2023-04-23T00:59:08.322Z,22
2023-04-23T01:00:15.303Z,25
2023-04-23T01:01:22.210Z,25
2023-04-23T01:02:29.095Z,24
2023-04-23T01:03:35.965Z,25
2023-04-23T01:04:42.995Z,25
2023-04-23T01:05:49.869Z,22
2023-04-23T01:06:56.723Z,23
2023-04-23T01:08:03.545Z,26
2023-04-23T01:09:10.423Z,26
2023-04-23T01:10:17.342Z,25
2023-04-23T01:11:24.188Z,23
2023-04-23T01:12:31.107Z,28
2023-04-23T01:13:38.181Z,25
2023-04-23T01:14:45.069Z,28
2023-04-23T01:15:51.912Z,26
2023-04-23T01:16:58.776Z,27
2023-04-23T01:18:05.737Z,26
2023-04-23T01:19:12.551Z,24
2023-04-23T01:20:19.789Z,27
2023-04-23T01:21:26.602Z,26
2023-04-23T01:22:33.436Z,27
2023-04-23T01:23:40.300Z,28
2023-04-23T01:24:48.037Z,26
2023-04-23T01:25:54.923Z,27
2023-04-23T01:27:01.804Z,27
2023-04-23T01:28:08.753Z,24
2023-04-23T01:29:17.625Z,28
2023-04-23T01:30:24.533Z,26
2023-04-23T01:31:31.424Z,26
2023-04-23T01:32:38.215Z,25
2023-04-23T01:33:47.449Z,26
2023-04-23T01:34:54.245Z,24
2023-04-23T01:36:01.073Z,25
2023-04-23T01:37:08.172Z,25
2023-04-23T01:38:15.117Z,26
2023-04-23T01:39:21.976Z,28
2023-04-23T01:40:28.762Z,26
2023-04-23T01:41:35.585Z,27
2023-04-23T01:42:42.519Z,27
2023-04-23T01:43:49.420Z,27
2023-04-23T01:44:56.232Z,27
2023-04-23T01:46:03.209Z,27
2023-04-23T01:47:10.119Z,30
2023-04-23T01:48:16.896Z,27
2023-04-23T01:49:23.734Z,27
2023-04-23T01:50:30.572Z,29
2023-04-23T01:51:37.453Z,28
2023-04-23T01:52:45.075Z,27
2023-04-23T01:53:51.930Z,27
2023-04-23T01:54:58.750Z,31
2023-04-23T01:56:05.668Z,28
2023-04-23T01:57:12.461Z,30
2023-04-23T01:58:19.402Z,30
2023-04-23T01:59:26.193Z,29
2023-04-23T02:00:32.973Z,29
2023-04-23T02:01:39.869Z,29
2023-04-23T02:02:49.334Z,32
2023-04-23T02:03:56.188Z,28
2023-04-23T02:05:03.099Z,27
2023-04-23T02:06:10.209Z,31
2023-04-23T02:07:17.113Z,30
2023-04-23T02:08:23.989Z,28
2023-04-23T02:09:30.848Z,31
2023-04-23T02:10:41.390Z,29
2023-04-23T02:11:48.262Z,30
2023-04-23T02:12:55.075Z,33
2023-04-23T02:14:02.049Z,31
2023-04-23T02:15:08.927Z,31
2023-04-23T02:16:15.817Z,32
2023-04-23T02:17:22.666Z,35
2023-04-23T02:18:29.533Z,33
2023-04-23T02:19:36.453Z,35
2023-04-23T02:20:43.240Z,35
2023-04-23T02:21:50.141Z,34
2023-04-23T02:22:57.860Z,37
2023-04-23T02:24:04.735Z,35
2023-04-23T02:25:11.609Z,38
2023-04-23T02:26:18.463Z,34
2023-04-23T02:27:25.304Z,34
2023-04-23T02:28:32.335Z,33
2023-04-23T02:29:39.227Z,34
2023-04-23T02:30:46.130Z,33
2023-04-23T02:31:53.062Z,34
2023-04-23T02:33:00.734Z,34
2023-04-23T02:34:07.592Z,31
2023-04-23T02:35:14.461Z,32
2023-04-23T02:36:21.330Z,33
2023-04-23T02:37:28.168Z,34
2023-04-23T02:38:37.468Z,33
2023-04-23T02:39:47.033Z,31
2023-04-23T02:40:53.832Z,29
2023-04-23T02:42:00.752Z,27
2023-04-23T02:43:07.650Z,29
2023-04-23T02:44:14.427Z,27
2023-04-23T02:45:21.338Z,25
2023-04-23T02:46:28.235Z,26
2023-04-23T02:47:35.166Z,26
2023-04-23T02:48:42.002Z,24
2023-04-23T02:49:48.862Z,23
2023-04-23T02:50:55.767Z,24
2023-04-23T02:52:02.685Z,23
2023-04-23T02:53:09.559Z,24
2023-04-23T02:54:16.476Z,25
2023-04-23T02:55:23.298Z,24
2023-04-23T02:56:30.481Z,23
2023-04-23T02:57:37.451Z,23
2023-04-23T02:58:45.234Z,23
2023-04-23T02:59:52.060Z,20
2023-04-23T03:01:00.593Z,23
2023-04-23T03:02:07.508Z,23
2023-04-23T03:03:14.356Z,22
2023-04-23T03:04:21.219Z,20
2023-04-23T03:05:28.125Z,21
2023-04-23T03:06:35.062Z,21
2023-04-23T03:07:43.233Z,20
2023-04-23T03:08:50.014Z,19
2023-04-23T03:09:56.839Z,19
2023-04-23T03:11:03.818Z,19
2023-04-23T03:12:10.852Z,22
2023-04-23T03:13:17.692Z,21
2023-04-23T03:14:24.617Z,20
2023-04-23T03:15:32.873Z,20
2023-04-23T03:16:39.922Z,24
2023-04-23T03:17:46.850Z,22
2023-04-23T03:18:53.706Z,22
2023-04-23T03:20:00.630Z,24
2023-04-23T03:21:07.691Z,24
2023-04-23T03:22:14.721Z,25
2023-04-23T03:23:21.523Z,25
2023-04-23T03:24:28.400Z,25
2023-04-23T03:25:38.324Z,26
2023-04-23T03:26:45.217Z,27
2023-04-23T03:27:52.066Z,26
2023-04-23T03:28:58.981Z,25
2023-04-23T03:30:05.901Z,28
2023-04-23T03:31:13.032Z,30
2023-04-23T03:32:19.908Z,28
2023-04-23T03:33:26.694Z,29
2023-04-23T03:34:33.506Z,28
2023-04-23T03:35:40.577Z,28
2023-04-23T03:36:47.559Z,26
2023-04-23T03:37:54.505Z,27
2023-04-23T03:39:01.356Z,25
2023-04-23T03:40:08.264Z,27
2023-04-23T03:41:15.615Z,29
2023-04-23T03:42:22.512Z,27
2023-04-23T03:43:29.326Z,24
2023-04-23T03:44:36.221Z,24
2023-04-23T03:45:43.268Z,23
2023-04-23T03:46:50.027Z,24
2023-04-23T03:47:57.656Z,25
2023-04-23T03:49:04.561Z,25
2023-04-23T03:50:11.752Z,27
2023-04-23T03:51:19.577Z,24
2023-04-23T03:52:26.416Z,25
2023-04-23T03:53:33.218Z,25
2023-04-23T03:54:40.316Z,21
2023-04-23T03:55:47.129Z,22
2023-04-23T03:56:53.988Z,21
2023-04-23T03:58:00.854Z,22
2023-04-23T03:59:07.698Z,22
2023-04-23T04:00:14.596Z,22
2023-04-23T04:01:21.608Z,21
2023-04-23T04:02:28.471Z,21
2023-04-23T04:03:35.313Z,23
2023-04-23T04:04:42.333Z,23
2023-04-23T04:05:49.219Z,19
2023-04-23T04:06:56.024Z,23
2023-04-23T04:08:02.860Z,21
2023-04-23T04:09:09.679Z,23
2023-04-23T04:10:16.557Z,24
2023-04-23T04:11:23.540Z,24
2023-04-23T04:12:30.400Z,27
2023-04-23T04:13:37.188Z,25
2023-04-23T04:14:44.135Z,23
2023-04-23T04:15:51.139Z,28
2023-04-23T04:16:57.942Z,22
2023-04-23T04:18:04.778Z,24
2023-04-23T04:19:11.652Z,22
2023-04-23T04:20:18.509Z,25
2023-04-23T04:21:25.470Z,17
2023-04-23T04:22:32.315Z,22
2023-04-23T04:23:39.209Z,19
2023-04-23T04:24:46.077Z,17
2023-04-23T04:25:52.932Z,19
2023-04-23T04:27:00.108Z,18
2023-04-23T04:28:07.049Z,17
2023-04-23T04:29:13.916Z,18
2023-04-23T04:30:20.858Z,17
2023-04-23T04:31:27.872Z,20
2023-04-23T04:32:34.829Z,19
2023-04-23T04:33:41.614Z,20
2023-04-23T04:34:48.400Z,19
2023-04-23T04:35:55.548Z,18
2023-04-23T04:37:02.471Z,19
2023-04-23T04:38:09.332Z,20
2023-04-23T04:39:16.161Z,23
2023-04-23T04:40:23.136Z,21
2023-04-23T04:41:30.093Z,22
2023-04-23T04:42:36.953Z,22
2023-04-23T04:43:43.757Z,23
2023-04-23T04:44:50.632Z,22
2023-04-23T04:45:57.520Z,23
2023-04-23T04:47:05.383Z,22
2023-04-23T04:48:13.080Z,22
2023-04-23T04:49:19.854Z,19
2023-04-23T04:50:27.731Z,19
2023-04-23T04:51:34.539Z,18
2023-04-23T04:52:41.339Z,23
2023-04-23T04:53:48.288Z,20
2023-04-23T04:54:56.042Z,18
2023-04-23T04:56:02.938Z,20
2023-04-23T04:57:09.819Z,19
2023-04-23T04:58:16.666Z,18
2023-04-23T04:59:23.532Z,19
2023-04-23T05:00:30.399Z,20
2023-04-23T05:01:37.518Z,20
2023-04-23T05:02:44.175Z,20
2023-04-23T05:03:51.120Z,19
2023-04-23T05:05:00.409Z,20
2023-04-23T05:06:08.364Z,22
2023-04-23T05:07:15.146Z,19
2023-04-23T05:08:21.860Z,19
2023-04-23T05:09:28.814Z,19
2023-04-23T05:10:35.677Z,18
2023-04-23T05:11:42.517Z,23
2023-04-23T05:12:49.335Z,17
2023-04-23T05:13:56.102Z,18
2023-04-23T05:15:03.149Z,15
2023-04-23T05:16:13.331Z,17
2023-04-23T05:17:20.191Z,18
2023-04-23T05:18:26.912Z,17
2023-04-23T05:19:33.903Z,19
2023-04-23T05:20:40.730Z,15
2023-04-23T05:21:47.554Z,15
2023-04-23T05:22:54.392Z,13
2023-04-23T05:24:01.325Z,15
2023-04-23T05:25:08.438Z,16
2023-04-23T05:26:15.333Z,17
2023-04-23T05:27:22.136Z,15
2023-04-23T05:28:29.081Z,14
2023-04-23T05:29:35.876Z,16
2023-04-23T05:30:42.766Z,14
2023-04-23T05:31:49.630Z,16
2023-04-23T05:32:57.352Z,14
2023-04-23T05:34:05.491Z,16
2023-04-23T05:35:12.412Z,14
2023-04-23T05:36:19.160Z,14
2023-04-23T05:37:25.961Z,15
2023-04-23T05:38:32.815Z,16
2023-04-23T05:39:39.770Z,13
2023-04-23T05:40:47.736Z,15
2023-04-23T05:41:54.586Z,14
2023-04-23T05:43:01.466Z,15
2023-04-23T05:44:08.334Z,14
2023-04-23T05:45:15.208Z,13
2023-04-23T05:46:22.031Z,14
2023-04-23T05:47:28.899Z,14
2023-04-23T05:48:35.728Z,13
2023-04-23T05:49:42.520Z,13
2023-04-23T05:50:49.848Z,15
2023-04-23T05:51:58.578Z,15
2023-04-23T05:53:05.385Z,12
2023-04-23T05:54:12.226Z,14
2023-04-23T05:55:20.303Z,13
2023-04-23T05:56:27.232Z,14
2023-04-23T05:57:34.113Z,16
2023-04-23T05:58:44.598Z,14
2023-04-23T05:59:52.005Z,12
2023-04-23T06:00:59.672Z,15
2023-04-23T06:02:06.602Z,13
2023-04-23T06:03:13.705Z,15
2023-04-23T06:04:20.777Z,15
2023-04-23T06:05:28.319Z,12
2023-04-23T06:06:35.185Z,14
2023-04-23T06:07:42.004Z,12
2023-04-23T06:08:49.845Z,15
2023-04-23T06:09:56.828Z,15
2023-04-23T06:11:03.638Z,16
2023-04-23T06:12:10.428Z,13
2023-04-23T06:13:17.364Z,12
2023-04-23T06:14:24.393Z,13
2023-04-23T06:15:31.748Z,12
2023-04-23T06:16:38.567Z,14
2023-04-23T06:17:45.418Z,14
2023-04-23T06:18:53.144Z,11
2023-04-23T06:20:00.020Z,13
2023-04-23T06:21:07.413Z,15
2023-04-23T06:22:14.401Z,13
2023-04-23T06:23:21.267Z,13
2023-04-23T06:24:28.309Z,12
2023-04-23T06:25:36.189Z,12
2023-04-23T06:26:44.548Z,13
2023-04-23T06:27:51.652Z,12
2023-04-23T06:28:58.658Z,14
2023-04-23T06:30:05.467Z,13
2023-04-23T06:31:12.494Z,14
2023-04-23T06:32:20.572Z,14
2023-04-23T06:33:29.872Z,13
2023-04-23T06:34:44.072Z,13
2023-04-23T06:35:53.312Z,12
2023-04-23T06:37:00.232Z,13
2023-04-23T06:38:07.008Z,12
2023-04-23T06:39:14.815Z,13
2023-04-23T06:40:21.796Z,12
2023-04-23T06:41:29.616Z,11
2023-04-23T06:42:36.470Z,12
2023-04-23T06:43:43.305Z,12
2023-04-23T06:44:50.307Z,16
2023-04-23T06:45:57.325Z,11
2023-04-23T06:47:04.283Z,14
2023-04-23T06:48:11.096Z,12
2023-04-23T06:49:18.040Z,14
2023-04-23T06:50:25.151Z,14
2023-04-23T06:51:33.078Z,12
2023-04-23T06:52:39.888Z,12
2023-04-23T06:53:46.805Z,14
2023-04-23T06:54:53.647Z,12
2023-04-23T06:56:00.628Z,12
2023-04-23T06:57:07.448Z,13
2023-04-23T06:58:14.909Z,12
2023-04-23T06:59:21.057Z,12
2023-04-23T07:00:27.882Z,12
2023-04-23T07:01:35.135Z,11
2023-04-23T07:02:43.050Z,10
2023-04-23T07:03:49.995Z,13
2023-04-23T07:04:56.790Z,11
2023-04-23T07:06:03.758Z,12
2023-04-23T07:07:10.835Z,12
2023-04-23T07:08:17.755Z,11
2023-04-23T07:09:25.737Z,10
2023-04-23T07:10:33.287Z,10
2023-04-23T07:11:41.100Z,9
2023-04-23T07:12:47.993Z,10
2023-04-23T07:13:55.904Z,10
2023-04-23T07:15:02.839Z,11
2023-04-23T07:16:11.037Z,10
2023-04-23T07:17:17.901Z,11
2023-04-23T07:18:25.587Z,11
2023-04-23T07:19:32.528Z,11
2023-04-23T07:20:40.357Z,11
2023-04-23T07:21:47.242Z,14
2023-04-23T07:22:54.042Z,11
2023-04-23T07:24:00.908Z,12
2023-04-23T07:25:07.911Z,15
2023-04-23T07:26:14.780Z,9
2023-04-23T07:27:21.605Z,10
2023-04-23T07:28:28.696Z,10
2023-04-23T07:29:35.328Z,9
2023-04-23T07:30:43.137Z,10
2023-04-23T07:31:50.137Z,9
2023-04-23T07:32:57.006Z,8
2023-04-23T07:34:03.853Z,11
2023-04-23T07:35:10.822Z,11
2023-04-23T07:36:17.686Z,10
2023-04-23T07:37:25.080Z,10
2023-04-23T07:38:31.890Z,11
2023-04-23T07:39:39.094Z,11
2023-04-23T07:40:45.615Z,10
2023-04-23T07:41:52.641Z,10
2023-04-23T07:42:59.658Z,10
2023-04-23T07:44:06.316Z,10
2023-04-23T07:45:13.202Z,9
2023-04-23T07:46:20.051Z,9
2023-04-23T07:47:26.858Z,11
2023-04-23T07:48:33.812Z,8
2023-04-23T07:49:40.711Z,11
2023-04-23T07:50:47.409Z,9
2023-04-23T07:51:54.728Z,9
2023-04-23T07:53:01.600Z,8
2023-04-23T07:54:08.433Z,8
2023-04-23T07:55:15.371Z,11
2023-04-23T07:56:22.189Z,11
2023-04-23T07:57:29.035Z,7
2023-04-23T07:58:37.536Z,9
2023-04-23T07:59:44.804Z,8
2023-04-23T08:00:51.798Z,7
2023-04-23T08:01:58.629Z,9
2023-04-23T08:03:05.740Z,8
2023-04-23T08:04:12.851Z,11
2023-04-23T08:05:19.576Z,8
2023-04-23T08:06:27.313Z,13
2023-04-23T08:07:34.126Z,9
2023-04-23T08:08:41.053Z,10
2023-04-23T08:09:48.274Z,8
2023-04-23T08:10:54.921Z,8
2023-04-23T08:12:02.659Z,8
2023-04-23T08:13:09.490Z,8
2023-04-23T08:14:17.237Z,10
2023-04-23T08:15:24.048Z,7
2023-04-23T08:16:31.910Z,9
2023-04-23T08:17:38.653Z,9
2023-04-23T08:18:58.073Z,8
2023-04-23T08:19:54.137Z,10
2023-04-23T08:21:01.025Z,10
2023-04-23T08:22:07.885Z,7
2023-04-23T08:23:14.723Z,8
2023-04-23T08:24:21.626Z,10
2023-04-23T08:25:28.470Z,10
2023-04-23T08:26:35.453Z,7
2023-04-23T08:27:43.473Z,8
2023-04-23T08:28:50.321Z,9
2023-04-23T08:29:57.304Z,9
2023-04-23T08:31:12.126Z,8
2023-04-23T08:32:10.961Z,9
2023-04-23T08:33:17.777Z,7
2023-04-23T08:34:24.598Z,7
2023-04-23T08:35:31.545Z,7
2023-04-23T08:36:38.476Z,7
2023-04-23T08:37:45.371Z,7
2023-04-23T08:38:52.201Z,9
2023-04-23T08:39:59.101Z,8
2023-04-23T08:41:05.992Z,8
2023-04-23T08:42:12.871Z,8
2023-04-23T08:43:27.613Z,8
2023-04-23T08:44:34.435Z,11
2023-04-23T08:45:41.269Z,8
2023-04-23T08:46:50.774Z,9
2023-04-23T08:47:58.482Z,7
2023-04-23T08:49:05.376Z,9
2023-04-23T08:50:12.201Z,7
2023-04-23T08:51:21.766Z,7
2023-04-23T08:52:28.586Z,8
2023-04-23T08:53:35.475Z,7
2023-04-23T08:54:42.309Z,8
2023-04-23T08:55:49.150Z,8
2023-04-23T08:56:56.003Z,9
2023-04-23T08:58:02.914Z,8
2023-04-23T08:59:09.916Z,9
2023-04-23T09:00:16.738Z,8
2023-04-23T09:01:23.684Z,6
2023-04-23T09:02:30.582Z,7
2023-04-23T09:03:37.522Z,7
2023-04-23T09:04:44.528Z,7
2023-04-23T09:05:51.398Z,8
2023-04-23T09:06:58.250Z,8
2023-04-23T09:08:05.999Z,7
2023-04-23T09:09:13.828Z,8
2023-04-23T09:10:20.727Z,8
2023-04-23T09:11:27.533Z,8
2023-04-23T09:12:34.387Z,6
2023-04-23T09:13:41.299Z,8
2023-04-23T09:14:49.319Z,7
2023-04-23T09:15:56.223Z,7
2023-04-23T09:17:03.940Z,6
2023-04-23T09:18:10.823Z,6
2023-04-23T09:19:17.631Z,7
2023-04-23T09:20:24.478Z,9
2023-04-23T09:21:31.420Z,7
2023-04-23T09:22:38.311Z,5
2023-04-23T09:23:49.072Z,7
2023-04-23T09:24:55.979Z,7
2023-04-23T09:26:02.884Z,8
2023-04-23T09:27:09.841Z,7
2023-04-23T09:28:16.678Z,9
2023-04-23T09:29:23.688Z,8
2023-04-23T09:30:30.466Z,7
2023-04-23T09:31:42.463Z,10
2023-04-23T09:32:49.295Z,7
2023-04-23T09:33:57.138Z,9
2023-04-23T09:35:04.109Z,8
2023-04-23T09:36:13.024Z,7
2023-04-23T09:37:19.796Z,7
2023-04-23T09:38:29.427Z,8
2023-04-23T09:39:36.451Z,7
2023-04-23T09:40:43.253Z,6
2023-04-23T09:41:50.032Z,7
2023-04-23T09:42:58.079Z,6
2023-04-23T09:44:04.870Z,8
2023-04-23T09:45:14.701Z,6
2023-04-23T09:46:22.728Z,7
2023-04-23T09:47:34.840Z,7
2023-04-23T09:48:42.518Z,6
2023-04-23T09:49:51.053Z,8
2023-04-23T09:50:59.352Z,7
2023-04-23T09:52:06.312Z,7
2023-04-23T09:53:13.162Z,7
2023-04-23T09:54:19.973Z,8
2023-04-23T09:55:26.870Z,7
2023-04-23T09:56:39.518Z,9
2023-04-23T09:57:46.330Z,8
2023-04-23T09:58:53.126Z,9
2023-04-23T10:00:07.204Z,8
2023-04-23T10:01:17.175Z,7
2023-04-23T10:02:24.154Z,9
2023-04-23T10:03:30.999Z,8
2023-04-23T10:04:37.906Z,10
2023-04-23T10:06:00.163Z,8
2023-04-23T10:07:59.231Z,7
2023-04-23T10:09:06.148Z,7
2023-04-23T10:10:13.079Z,8
2023-04-23T10:11:20.824Z,8
2023-04-23T10:13:33.647Z,10
2023-04-23T10:14:40.607Z,8
2023-04-23T10:15:47.539Z,8
2023-04-23T10:16:54.287Z,9
2023-04-23T10:18:04.080Z,9
2023-04-23T10:19:10.843Z,8
2023-04-23T10:20:17.899Z,11
2023-04-23T10:21:25.602Z,7
2023-04-23T10:22:32.369Z,6
2023-04-23T10:23:39.177Z,8
2023-04-23T10:24:47.892Z,8
2023-04-23T10:25:53.004Z,8
2023-04-23T10:27:01.930Z,7
2023-04-23T10:28:06.731Z,8
2023-04-23T10:29:14.545Z,8
2023-04-23T10:30:21.378Z,8
2023-04-23T10:31:28.261Z,10
2023-04-23T10:32:35.165Z,9
2023-04-23T10:33:49.706Z,7
2023-04-23T10:34:48.984Z,9
2023-04-23T10:35:55.927Z,8
2023-04-23T10:37:02.844Z,8
2023-04-23T10:38:09.781Z,7
2023-04-23T10:39:23.965Z,9
2023-04-23T10:40:23.509Z,7
2023-04-23T10:41:32.879Z,8
2023-04-23T10:42:39.812Z,8
2023-04-23T10:43:46.648Z,7
2023-04-23T10:44:59.292Z,7
2023-04-23T10:46:02.984Z,7
2023-04-23T10:47:09.817Z,8
2023-04-23T10:48:19.556Z,6
2023-04-23T10:49:26.401Z,8
2023-04-23T10:50:33.283Z,9
2023-04-23T10:52:49.928Z,7
2023-04-23T10:53:56.775Z,7
2023-04-23T10:55:03.626Z,8
2023-04-23T10:56:10.587Z,6
2023-04-23T10:57:17.462Z,7
2023-04-23T10:58:24.321Z,7
2023-04-23T10:59:31.212Z,6
2023-04-23T11:00:38.121Z,7
2023-04-23T11:01:44.983Z,8
2023-04-23T11:02:58.008Z,9
2023-04-23T11:04:04.939Z,7
2023-04-23T11:05:21.982Z,9
2023-04-23T11:06:28.785Z,8
2023-04-23T11:07:45.926Z,7
2023-04-23T11:09:03.981Z,8
2023-04-23T11:10:22.026Z,7
2023-04-23T11:11:28.898Z,7
2023-04-23T11:12:43.764Z,6
2023-04-23T11:13:50.678Z,6
2023-04-23T11:14:58.625Z,6
2023-04-23T11:16:15.935Z,7
2023-04-23T11:17:25.430Z,7
2023-04-23T11:18:34.974Z,6
2023-04-23T11:19:52.230Z,7
2023-04-23T11:21:07.039Z,8
2023-04-23T11:22:13.798Z,8
2023-04-23T11:23:20.601Z,8
2023-04-23T11:24:32.658Z,8
2023-04-23T11:25:45.437Z,7
2023-04-23T11:26:52.293Z,6
2023-04-23T11:27:59.124Z,7
2023-04-23T11:29:05.997Z,7
2023-04-23T11:30:14.006Z,8
2023-04-23T11:31:20.780Z,7
2023-04-23T11:32:28.575Z,7
2023-04-23T11:33:35.418Z,6
2023-04-23T11:34:42.325Z,7
2023-04-23T11:35:49.736Z,7
2023-04-23T11:36:56.697Z,7
2023-04-23T11:38:03.477Z,6
2023-04-23T11:39:13.410Z,8
2023-04-23T11:40:20.396Z,7
2023-04-23T11:41:27.294Z,7
2023-04-23T11:42:34.831Z,7
2023-04-23T11:43:47.361Z,6
2023-04-23T11:44:54.262Z,6
2023-04-23T11:46:02.037Z,7
2023-04-23T11:47:08.812Z,8
2023-04-23T11:48:17.191Z,6
2023-04-23T11:49:25.247Z,6
2023-04-23T11:50:32.270Z,6
2023-04-23T11:51:39.935Z,9
2023-04-23T11:52:46.822Z,8
2023-04-23T11:53:53.566Z,6
2023-04-23T11:55:00.370Z,9
2023-04-23T11:56:10.048Z,7
2023-04-23T11:57:19.528Z,7
2023-04-23T11:58:26.397Z,7
2023-04-23T11:59:33.242Z,6
2023-04-23T12:00:40.187Z,5
2023-04-23T12:01:47.074Z,6
2023-04-23T12:02:56.966Z,8
2023-04-23T12:04:04.022Z,7
2023-04-23T12:05:15.849Z,7
2023-04-23T12:06:30.792Z,8
2023-04-23T12:07:37.686Z,5
2023-04-23T12:08:44.538Z,5
2023-04-23T12:09:51.485Z,6
2023-04-23T12:10:58.443Z,6
2023-04-23T12:12:05.362Z,5
2023-04-23T12:13:12.299Z,6
2023-04-23T12:14:19.154Z,7
2023-04-23T12:15:29.521Z,6
2023-04-23T12:16:36.600Z,7
2023-04-23T12:17:49.070Z,8
2023-04-23T12:18:55.911Z,5
2023-04-23T12:20:02.915Z,7
2023-04-23T12:21:10.178Z,6
2023-04-23T12:22:17.026Z,7
2023-04-23T12:23:23.903Z,5
2023-04-23T12:24:31.802Z,5
2023-04-23T12:25:48.959Z,6
2023-04-23T12:26:56.069Z,4
2023-04-23T12:28:02.990Z,6
2023-04-23T12:29:09.878Z,5
2023-04-23T12:30:16.799Z,7
2023-04-23T12:31:23.802Z,7
2023-04-23T12:32:33.406Z,6
2023-04-23T12:33:40.409Z,7
2023-04-23T12:34:47.693Z,6
2023-04-23T12:35:57.573Z,5
2023-04-23T12:37:04.507Z,8
2023-04-23T12:38:11.423Z,5
2023-04-23T12:39:23.468Z,8
2023-04-23T12:40:30.354Z,7
2023-04-23T12:41:37.155Z,6
2023-04-23T12:42:44.009Z,6
2023-04-23T12:43:51.661Z,5
2023-04-23T12:44:58.471Z,8
2023-04-23T12:46:11.286Z,7
2023-04-23T12:47:18.109Z,6
2023-04-23T12:48:24.970Z,5
2023-04-23T12:49:32.526Z,8
2023-04-23T12:50:39.429Z,8
2023-04-23T12:51:46.361Z,6
2023-04-23T12:52:53.274Z,5
2023-04-23T12:54:00.155Z,8
2023-04-23T12:55:07.040Z,5
2023-04-23T12:56:13.941Z,5
2023-04-23T12:57:21.640Z,6
2023-04-23T12:58:28.508Z,7
2023-04-23T12:59:35.576Z,6
2023-04-23T13:00:42.396Z,5
2023-04-23T13:01:49.260Z,5
2023-04-23T13:02:56.852Z,5
2023-04-23T13:04:03.445Z,6
2023-04-23T13:05:11.197Z,6
2023-04-23T13:06:18.069Z,6
2023-04-23T13:07:25.004Z,5
2023-04-23T13:08:31.839Z,6
2023-04-23T13:09:38.715Z,5
2023-04-23T13:10:45.488Z,5
2023-04-23T13:11:52.321Z,4
2023-04-23T13:12:59.165Z,7
2023-04-23T13:14:06.054Z,6
2023-04-23T13:15:12.952Z,6
2023-04-23T13:16:19.821Z,6
2023-04-23T13:17:26.770Z,6
2023-04-23T13:18:33.533Z,5
2023-04-23T13:19:40.544Z,5
2023-04-23T13:20:48.068Z,6
2023-04-23T13:21:54.900Z,4
2023-04-23T13:23:01.700Z,4
2023-04-23T13:24:10.863Z,6
2023-04-23T13:25:18.714Z,4
2023-04-23T13:26:25.608Z,6
2023-04-23T13:27:35.319Z,6
2023-04-23T13:28:42.140Z,6
2023-04-23T13:29:49.004Z,6
2023-04-23T13:30:55.820Z,5
2023-04-23T13:32:03.711Z,6
2023-04-23T13:33:10.597Z,8
2023-04-23T13:34:18.490Z,6
2023-04-23T13:35:25.405Z,7
2023-04-23T13:36:32.300Z,6
2023-04-23T13:37:39.110Z,5
2023-04-23T13:38:46.039Z,5
2023-04-23T13:39:52.896Z,5
2023-04-23T13:40:59.685Z,5
2023-04-23T13:42:09.766Z,8
2023-04-23T13:43:13.448Z,5
2023-04-23T13:44:20.282Z,5
2023-04-23T13:45:28.094Z,5
2023-04-23T13:46:34.933Z,7
2023-04-23T13:47:41.805Z,7
2023-04-23T13:48:48.711Z,7
2023-04-23T13:49:58.249Z,4
2023-04-23T13:51:17.272Z,8
2023-04-23T13:52:14.997Z,9
2023-04-23T13:53:21.861Z,9
2023-04-23T13:54:29.793Z,6
2023-04-23T13:55:36.701Z,8
2023-04-23T13:56:44.551Z,7
2023-04-23T13:57:51.381Z,8
2023-04-23T13:59:12.003Z,5
2023-04-23T14:00:07.949Z,6
2023-04-23T14:01:14.947Z,6
2023-04-23T14:02:21.931Z,7
2023-04-23T14:03:28.883Z,7
2023-04-23T14:04:35.637Z,7
2023-04-23T14:05:42.526Z,6
2023-04-23T14:06:49.394Z,7
2023-04-23T14:07:56.217Z,7
2023-04-23T14:09:03.102Z,5
2023-04-23T14:10:10.007Z,7
2023-04-23T14:11:16.826Z,6
2023-04-23T14:12:23.667Z,9
2023-04-23T14:13:30.549Z,8
2023-04-23T14:14:37.474Z,7
2023-04-23T14:15:45.240Z,5
2023-04-23T14:16:52.109Z,5
2023-04-23T14:17:59.032Z,7
2023-04-23T14:19:06.696Z,6
2023-04-23T14:20:13.488Z,6
2023-04-23T14:21:20.352Z,5
2023-04-23T14:22:27.144Z,6
2023-04-23T14:23:34.017Z,6
2023-04-23T14:24:46.167Z,6
2023-04-23T14:25:53.057Z,7
2023-04-23T14:27:03.790Z,6
2023-04-23T14:28:09.705Z,5
2023-04-23T14:29:26.831Z,6
2023-04-23T14:30:33.746Z,7
2023-04-23T14:31:40.716Z,5
2023-04-23T14:32:49.574Z,7
2023-04-23T14:33:55.266Z,7
2023-04-23T14:35:02.107Z,5
2023-04-23T14:36:09.334Z,7
2023-04-23T14:37:16.266Z,5
2023-04-23T14:38:23.137Z,7
2023-04-23T14:39:29.991Z,7
2023-04-23T14:40:36.839Z,6
2023-04-23T14:41:43.666Z,6
2023-04-23T14:42:50.593Z,6
2023-04-23T14:43:58.444Z,6
2023-04-23T14:45:05.283Z,6
2023-04-23T14:46:13.104Z,6
2023-04-23T14:47:20.745Z,5
2023-04-23T14:48:29.603Z,5
2023-04-23T14:49:36.567Z,6
2023-04-23T14:50:43.350Z,6
2023-04-23T14:51:50.187Z,7
2023-04-23T14:52:56.992Z,7
2023-04-23T14:54:03.878Z,6
2023-04-23T14:55:10.715Z,6
2023-04-23T14:56:17.665Z,5
2023-04-23T14:57:24.569Z,6
2023-04-23T14:58:31.416Z,8
2023-04-23T14:59:38.317Z,5
2023-04-23T15:00:45.153Z,6
2023-04-23T15:01:52.011Z,6
2023-04-23T15:02:58.850Z,7
2023-04-23T15:04:05.796Z,7
2023-04-23T15:05:12.601Z,7
2023-04-23T15:06:19.520Z,5
2023-04-23T15:07:26.383Z,5
2023-04-23T15:08:33.233Z,6
2023-04-23T15:09:40.191Z,5
2023-04-23T15:10:46.847Z,7
2023-04-23T15:11:53.858Z,7
2023-04-23T15:13:00.698Z,6
2023-04-23T15:14:13.319Z,7
2023-04-23T15:15:25.610Z,6
2023-04-23T15:16:40.362Z,7
2023-04-23T15:17:36.999Z,7
2023-04-23T15:18:43.808Z,5
2023-04-23T15:19:50.625Z,5
2023-04-23T15:20:57.497Z,7
2023-04-23T15:22:07.622Z,5
2023-04-23T15:23:14.488Z,6
2023-04-23T15:24:21.305Z,5
2023-04-23T15:25:28.108Z,6
2023-04-23T15:26:34.991Z,7
2023-04-23T15:27:41.899Z,6
2023-04-23T15:28:48.756Z,6
2023-04-23T15:29:55.633Z,7
2023-04-23T15:31:02.519Z,6
2023-04-23T15:32:09.412Z,7
2023-04-23T15:33:14.488Z,7
2023-04-23T15:34:21.286Z,5
2023-04-23T15:35:28.171Z,7
2023-04-23T15:36:35.107Z,6
2023-04-23T15:37:41.999Z,7
2023-04-23T15:38:48.817Z,8
2023-04-23T15:39:55.683Z,6
2023-04-23T15:41:02.557Z,9
2023-04-23T15:42:09.451Z,9
2023-04-23T15:43:16.300Z,6
2023-04-23T15:44:23.277Z,9
2023-04-23T15:45:30.180Z,7
2023-04-23T15:46:37.049Z,7
2023-04-23T15:47:43.875Z,7
2023-04-23T15:48:50.703Z,6
2023-04-23T15:49:57.628Z,5
2023-04-23T15:51:04.483Z,6
2023-04-23T15:52:11.304Z,6
2023-04-23T15:53:18.207Z,6
2023-04-23T15:54:25.170Z,6
2023-04-23T15:55:32.034Z,5
2023-04-23T15:56:38.867Z,7
2023-04-23T15:57:45.674Z,5
2023-04-23T15:58:52.541Z,7
2023-04-23T15:59:59.514Z,7
2023-04-23T16:01:06.536Z,5
2023-04-23T16:02:13.351Z,6
2023-04-23T16:03:20.246Z,8
2023-04-23T16:04:27.200Z,6
2023-04-23T16:05:33.869Z,6
2023-04-23T16:06:40.773Z,5
2023-04-23T16:07:47.765Z,7
2023-04-23T16:08:54.652Z,6
2023-04-23T16:10:01.617Z,7
2023-04-23T16:11:08.678Z,6
2023-04-23T16:12:15.530Z,6
2023-04-23T16:13:22.366Z,6
2023-04-23T16:14:29.242Z,6
2023-04-23T16:15:36.045Z,5
2023-04-23T16:16:42.945Z,6
2023-04-23T16:17:49.805Z,9
2023-04-23T16:18:57.188Z,6
2023-04-23T16:20:03.547Z,6
2023-04-23T16:21:10.751Z,8
2023-04-23T16:22:17.597Z,7